sensor_id;sensor_type;location;lat;lon;timestamp;P1;durP1;ratioP1;P2;durP2;ratioP2
63581;SDS011;49727;51.078;17.066;2023-04-19T00:11:28;17.85;;;10.05;;
63581;SDS011;49727;51.078;17.066;2023-04-19T00:26:28;15.05;;;10.10;;
63581;SDS011;49727;51.078;17.066;2023-04-19T00:41:29;15.82;;;9.15;;
63581;SDS011;49727;51.078;17.066;2023-04-19T00:56:29;12.75;;;8.93;;
63581;SDS011;49727;51.078;17.066;2023-04-19T01:11:30;15.33;;;9.07;;
63581;SDS011;49727;51.078;17.066;2023-04-19T01:26:31;11.05;;;7.05;;
63581;SDS011;49727;51.078;17.066;2023-04-19T01:41:31;17.70;;;8.77;;
63581;SDS011;49727;51.078;17.066;2023-04-19T01:56:31;11.65;;;7.50;;
63581;SDS011;49727;51.078;17.066;2023-04-19T02:11:32;10.43;;;6.07;;
63581;SDS011;49727;51.078;17.066;2023-04-19T02:26:32;15.15;;;6.85;;
63581;SDS011;49727;51.078;17.066;2023-04-19T02:41:32;8.93;;;4.43;;
63581;SDS011;49727;51.078;17.066;2023-04-19T02:56:33;8.40;;;5.35;;
63581;SDS011;49727;51.078;17.066;2023-04-19T03:11:33;13.00;;;5.35;;
63581;SDS011;49727;51.078;17.066;2023-04-19T03:26:34;10.70;;;4.03;;
63581;SDS011;49727;51.078;17.066;2023-04-19T03:41:35;9.02;;;4.65;;
63581;SDS011;49727;51.078;17.066;2023-04-19T03:56:35;7.57;;;4.75;;
63581;SDS011;49727;51.078;17.066;2023-04-19T04:11:36;8.32;;;4.03;;
63581;SDS011;49727;51.078;17.066;2023-04-19T04:26:36;4.80;;;3.03;;
63581;SDS011;49727;51.078;17.066;2023-04-19T04:41:38;5.10;;;4.00;;
63581;SDS011;49727;51.078;17.066;2023-04-19T04:56:41;6.43;;;3.83;;
63581;SDS011;49727;51.078;17.066;2023-04-19T05:11:41;6.53;;;4.30;;
63581;SDS011;49727;51.078;17.066;2023-04-19T05:26:42;8.38;;;4.03;;
63581;SDS011;49727;51.078;17.066;2023-04-19T05:41:42;8.80;;;3.85;;
63581;SDS011;49727;51.078;17.066;2023-04-19T05:56:42;7.65;;;3.92;;
63581;SDS011;49727;51.078;17.066;2023-04-19T06:11:43;9.18;;;3.80;;
63581;SDS011;49727;51.078;17.066;2023-04-19T06:26:44;7.30;;;3.83;;
63581;SDS011;49727;51.078;17.066;2023-04-19T06:41:46;10.37;;;3.77;;
63581;SDS011;49727;51.078;17.066;2023-04-19T06:56:47;5.20;;;2.95;;
63581;SDS011;49727;51.078;17.066;2023-04-19T07:11:49;7.63;;;3.30;;
63581;SDS011;49727;51.078;17.066;2023-04-19T07:26:50;5.67;;;3.53;;
63581;SDS011;49727;51.078;17.066;2023-04-19T07:41:50;8.20;;;3.72;;
63581;SDS011;49727;51.078;17.066;2023-04-19T07:56:50;15.95;;;4.07;;
63581;SDS011;49727;51.078;17.066;2023-04-19T08:11:51;7.70;;;4.07;;
63581;SDS011;49727;51.078;17.066;2023-04-19T08:26:52;6.97;;;3.87;;
63581;SDS011;49727;51.078;17.066;2023-04-19T08:41:52;10.55;;;4.72;;
63581;SDS011;49727;51.078;17.066;2023-04-19T08:56:58;9.27;;;4.93;;
63581;SDS011;49727;51.078;17.066;2023-04-19T09:11:59;9.33;;;5.60;;
63581;SDS011;49727;51.078;17.066;2023-04-19T09:27:00;15.85;;;5.90;;
63581;SDS011;49727;51.078;17.066;2023-04-19T09:42:00;11.93;;;5.63;;
63581;SDS011;49727;51.078;17.066;2023-04-19T09:57:01;9.60;;;5.65;;
63581;SDS011;49727;51.078;17.066;2023-04-19T10:12:01;11.18;;;6.22;;
63581;SDS011;49727;51.078;17.066;2023-04-19T10:27:06;10.03;;;6.50;;
63581;SDS011;49727;51.078;17.066;2023-04-19T10:42:10;13.23;;;6.50;;
63581;SDS011;49727;51.078;17.066;2023-04-19T10:57:12;10.50;;;6.30;;
63581;SDS011;49727;51.078;17.066;2023-04-19T11:12:14;10.00;;;7.00;;
63581;SDS011;49727;51.078;17.066;2023-04-19T11:27:15;13.47;;;6.53;;
63581;SDS011;49727;51.078;17.066;2023-04-19T11:42:16;11.48;;;6.63;;
63581;SDS011;49727;51.078;17.066;2023-04-19T11:57:27;14.23;;;7.23;;
63581;SDS011;49727;51.078;17.066;2023-04-19T12:12:31;10.47;;;7.77;;
63581;SDS011;49727;51.078;17.066;2023-04-19T12:27:31;10.53;;;6.63;;
63581;SDS011;49727;51.078;17.066;2023-04-19T12:42:31;12.90;;;8.23;;
63581;SDS011;49727;51.078;17.066;2023-04-19T12:57:32;14.55;;;8.25;;
63581;SDS011;49727;51.078;17.066;2023-04-19T13:12:32;13.93;;;6.55;;
63581;SDS011;49727;51.078;17.066;2023-04-19T13:27:32;10.75;;;6.03;;
63581;SDS011;49727;51.078;17.066;2023-04-19T13:42:33;11.55;;;6.72;;
63581;SDS011;49727;51.078;17.066;2023-04-19T13:57:33;14.77;;;7.38;;
63581;SDS011;49727;51.078;17.066;2023-04-19T14:12:34;9.47;;;6.77;;
63581;SDS011;49727;51.078;17.066;2023-04-19T14:27:35;12.57;;;5.53;;
63581;SDS011;49727;51.078;17.066;2023-04-19T14:42:35;11.70;;;8.65;;
63581;SDS011;49727;51.078;17.066;2023-04-19T14:57:36;10.60;;;6.65;;
63581;SDS011;49727;51.078;17.066;2023-04-19T15:12:36;8.88;;;5.45;;
63581;SDS011;49727;51.078;17.066;2023-04-19T15:27:37;10.00;;;6.20;;
63581;SDS011;49727;51.078;17.066;2023-04-19T15:42:37;8.70;;;5.80;;
63581;SDS011;49727;51.078;17.066;2023-04-19T15:57:37;7.63;;;5.10;;
63581;SDS011;49727;51.078;17.066;2023-04-19T16:12:38;8.32;;;5.93;;
63581;SDS011;49727;51.078;17.066;2023-04-19T16:27:39;7.75;;;4.82;;
63581;SDS011;49727;51.078;17.066;2023-04-19T16:42:43;6.57;;;4.60;;
63581;SDS011;49727;51.078;17.066;2023-04-19T16:57:44;10.10;;;5.75;;
63581;SDS011;49727;51.078;17.066;2023-04-19T17:12:44;8.10;;;5.70;;
63581;SDS011;49727;51.078;17.066;2023-04-19T17:27:44;8.95;;;5.25;;
63581;SDS011;49727;51.078;17.066;2023-04-19T17:42:45;8.95;;;5.05;;
63581;SDS011;49727;51.078;17.066;2023-04-19T17:57:45;9.90;;;5.68;;
63581;SDS011;49727;51.078;17.066;2023-04-19T18:12:46;8.70;;;6.15;;
63581;SDS011;49727;51.078;17.066;2023-04-19T18:27:47;8.98;;;6.57;;
63581;SDS011;49727;51.078;17.066;2023-04-19T18:42:47;9.63;;;6.18;;
63581;SDS011;49727;51.078;17.066;2023-04-19T18:57:47;10.65;;;6.38;;
63581;SDS011;49727;51.078;17.066;2023-04-19T19:12:48;12.02;;;7.93;;
63581;SDS011;49727;51.078;17.066;2023-04-19T19:27:48;11.98;;;6.90;;
63581;SDS011;49727;51.078;17.066;2023-04-19T19:42:52;10.43;;;6.70;;
63581;SDS011;49727;51.078;17.066;2023-04-19T19:57:53;11.48;;;6.88;;
63581;SDS011;49727;51.078;17.066;2023-04-19T20:12:53;11.98;;;8.30;;
63581;SDS011;49727;51.078;17.066;2023-04-19T20:27:55;17.23;;;9.98;;
63581;SDS011;49727;51.078;17.066;2023-04-19T20:42:56;13.48;;;8.52;;
63581;SDS011;49727;51.078;17.066;2023-04-19T20:57:56;15.05;;;10.52;;
63581;SDS011;49727;51.078;17.066;2023-04-19T21:12:57;14.25;;;9.65;;
63581;SDS011;49727;51.078;17.066;2023-04-19T21:27:57;15.23;;;10.95;;
63581;SDS011;49727;51.078;17.066;2023-04-19T21:42:57;17.63;;;10.93;;
63581;SDS011;49727;51.078;17.066;2023-04-19T21:57:57;15.75;;;10.20;;
63581;SDS011;49727;51.078;17.066;2023-04-19T22:12:58;11.90;;;8.55;;
63581;SDS011;49727;51.078;17.066;2023-04-19T22:28:01;14.45;;;8.77;;
63581;SDS011;49727;51.078;17.066;2023-04-19T22:43:01;13.35;;;9.73;;
63581;SDS011;49727;51.078;17.066;2023-04-19T22:58:02;14.85;;;9.32;;
63581;SDS011;49727;51.078;17.066;2023-04-19T23:13:04;20.70;;;13.07;;
63581;SDS011;49727;51.078;17.066;2023-04-19T23:28:04;17.60;;;12.65;;
63581;SDS011;49727;51.078;17.066;2023-04-19T23:43:05;16.20;;;10.60;;
63581;SDS011;49727;51.078;17.066;2023-04-19T23:58:05;17.50;;;11.27;;
